sensor_id;sensor_type;location;lat;lon;timestamp;temperature;humidity
74511;DHT22;62991;50.040;18.400;2023-06-10T00:02:55;16.50;83.70
74511;DHT22;62991;50.040;18.400;2023-06-10T00:05:56;16.50;83.60
74511;DHT22;62991;50.040;18.400;2023-06-10T00:08:57;16.60;83.10
74511;DHT22;62991;50.040;18.400;2023-06-10T00:11:57;16.60;83.10
74511;DHT22;62991;50.040;18.400;2023-06-10T00:15:00;16.70;83.10
74511;DHT22;62991;50.040;18.400;2023-06-10T00:18:01;16.60;83.00
74511;DHT22;62991;50.040;18.400;2023-06-10T00:21:03;16.60;83.20
74511;DHT22;62991;50.040;18.400;2023-06-10T00:24:08;16.50;83.60
74511;DHT22;62991;50.040;18.400;2023-06-10T00:27:12;16.40;83.70
74511;DHT22;62991;50.040;18.400;2023-06-10T00:30:13;16.40;83.80
74511;DHT22;62991;50.040;18.400;2023-06-10T00:33:13;16.40;83.70
74511;DHT22;62991;50.040;18.400;2023-06-10T00:36:14;16.40;83.80
74511;DHT22;62991;50.040;18.400;2023-06-10T00:39:15;16.30;84.00
74511;DHT22;62991;50.040;18.400;2023-06-10T00:42:17;16.30;84.00
74511;DHT22;62991;50.040;18.400;2023-06-10T00:45:17;16.30;84.00
74511;DHT22;62991;50.040;18.400;2023-06-10T00:48:18;16.30;84.00
74511;DHT22;62991;50.040;18.400;2023-06-10T00:51:19;16.30;84.20
74511;DHT22;62991;50.040;18.400;2023-06-10T00:54:21;16.30;84.30
74511;DHT22;62991;50.040;18.400;2023-06-10T00:57:21;16.20;84.30
74511;DHT22;62991;50.040;18.400;2023-06-10T01:00:22;16.20;84.80
74511;DHT22;62991;50.040;18.400;2023-06-10T01:03:23;16.20;84.50
74511;DHT22;62991;50.040;18.400;2023-06-10T01:06:46;16.30;84.40
74511;DHT22;62991;50.040;18.400;2023-06-10T01:13:01;16.30;84.50
74511;DHT22;62991;50.040;18.400;2023-06-10T01:16:07;16.30;84.60
74511;DHT22;62991;50.040;18.400;2023-06-10T01:19:08;16.40;84.20
74511;DHT22;62991;50.040;18.400;2023-06-10T01:22:10;16.40;84.10
74511;DHT22;62991;50.040;18.400;2023-06-10T01:25:11;16.40;84.20
74511;DHT22;62991;50.040;18.400;2023-06-10T01:31:44;16.50;83.70
74511;DHT22;62991;50.040;18.400;2023-06-10T01:34:48;16.60;83.40
74511;DHT22;62991;50.040;18.400;2023-06-10T01:37:51;16.60;83.50
74511;DHT22;62991;50.040;18.400;2023-06-10T01:40:54;16.50;83.50
74511;DHT22;62991;50.040;18.400;2023-06-10T01:43:56;16.40;83.80
74511;DHT22;62991;50.040;18.400;2023-06-10T01:46:56;16.30;84.50
74511;DHT22;62991;50.040;18.400;2023-06-10T01:49:57;16.30;84.50
74511;DHT22;62991;50.040;18.400;2023-06-10T01:52:59;16.20;84.80
74511;DHT22;62991;50.040;18.400;2023-06-10T01:55:59;16.20;85.00
74511;DHT22;62991;50.040;18.400;2023-06-10T01:59:00;16.20;85.00
74511;DHT22;62991;50.040;18.400;2023-06-10T02:02:01;16.30;84.80
74511;DHT22;62991;50.040;18.400;2023-06-10T02:05:01;16.40;84.30
74511;DHT22;62991;50.040;18.400;2023-06-10T02:08:02;16.40;84.40
74511;DHT22;62991;50.040;18.400;2023-06-10T02:11:03;16.40;84.10
74511;DHT22;62991;50.040;18.400;2023-06-10T02:14:04;16.50;84.00
74511;DHT22;62991;50.040;18.400;2023-06-10T02:17:05;16.40;84.10
74511;DHT22;62991;50.040;18.400;2023-06-10T02:20:06;16.40;84.30
74511;DHT22;62991;50.040;18.400;2023-06-10T02:23:07;16.40;84.30
74511;DHT22;62991;50.040;18.400;2023-06-10T02:26:08;16.30;84.60
74511;DHT22;62991;50.040;18.400;2023-06-10T02:29:09;16.30;84.60
74511;DHT22;62991;50.040;18.400;2023-06-10T02:32:10;16.40;84.30
74511;DHT22;62991;50.040;18.400;2023-06-10T02:35:10;16.50;84.00
74511;DHT22;62991;50.040;18.400;2023-06-10T02:38:12;16.50;84.10
74511;DHT22;62991;50.040;18.400;2023-06-10T02:41:13;16.60;83.60
74511;DHT22;62991;50.040;18.400;2023-06-10T02:44:14;16.60;83.60
74511;DHT22;62991;50.040;18.400;2023-06-10T02:47:14;16.50;83.90
74511;DHT22;62991;50.040;18.400;2023-06-10T02:50:15;16.60;84.00
74511;DHT22;62991;50.040;18.400;2023-06-10T02:53:16;16.70;83.50
74511;DHT22;62991;50.040;18.400;2023-06-10T02:56:17;16.70;83.20
74511;DHT22;62991;50.040;18.400;2023-06-10T02:59:18;16.70;83.40
74511;DHT22;62991;50.040;18.400;2023-06-10T03:02:19;16.60;83.70
74511;DHT22;62991;50.040;18.400;2023-06-10T03:05:20;16.50;83.70
74511;DHT22;62991;50.040;18.400;2023-06-10T03:08:22;16.60;83.90
74511;DHT22;62991;50.040;18.400;2023-06-10T03:11:23;16.40;84.10
74511;DHT22;62991;50.040;18.400;2023-06-10T03:14:25;16.50;84.20
74511;DHT22;62991;50.040;18.400;2023-06-10T03:17:26;16.40;84.40
74511;DHT22;62991;50.040;18.400;2023-06-10T03:20:26;16.50;84.20
74511;DHT22;62991;50.040;18.400;2023-06-10T03:23:28;16.40;84.20
74511;DHT22;62991;50.040;18.400;2023-06-10T03:26:29;16.50;84.30
74511;DHT22;62991;50.040;18.400;2023-06-10T03:29:30;16.50;84.30
74511;DHT22;62991;50.040;18.400;2023-06-10T03:32:31;16.60;84.00
74511;DHT22;62991;50.040;18.400;2023-06-10T03:35:31;16.50;84.00
74511;DHT22;62991;50.040;18.400;2023-06-10T03:38:32;16.60;84.00
74511;DHT22;62991;50.040;18.400;2023-06-10T03:41:33;16.50;84.20
74511;DHT22;62991;50.040;18.400;2023-06-10T03:44:34;16.60;83.90
74511;DHT22;62991;50.040;18.400;2023-06-10T03:47:35;16.70;83.70
74511;DHT22;62991;50.040;18.400;2023-06-10T03:50:40;16.60;83.70
74511;DHT22;62991;50.040;18.400;2023-06-10T03:53:41;16.70;83.70
74511;DHT22;62991;50.040;18.400;2023-06-10T03:56:42;16.70;83.60
74511;DHT22;62991;50.040;18.400;2023-06-10T03:59:42;16.80;83.50
74511;DHT22;62991;50.040;18.400;2023-06-10T04:02:44;16.70;83.40
74511;DHT22;62991;50.040;18.400;2023-06-10T04:05:49;16.80;83.60
74511;DHT22;62991;50.040;18.400;2023-06-10T04:08:50;16.90;82.90
74511;DHT22;62991;50.040;18.400;2023-06-10T04:11:51;16.80;83.00
74511;DHT22;62991;50.040;18.400;2023-06-10T04:14:52;16.80;83.20
74511;DHT22;62991;50.040;18.400;2023-06-10T04:17:53;16.80;83.40
74511;DHT22;62991;50.040;18.400;2023-06-10T04:20:54;16.90;83.10
74511;DHT22;62991;50.040;18.400;2023-06-10T04:23:56;17.10;82.50
74511;DHT22;62991;50.040;18.400;2023-06-10T04:26:56;17.10;82.40
74511;DHT22;62991;50.040;18.400;2023-06-10T04:29:57;17.10;82.40
74511;DHT22;62991;50.040;18.400;2023-06-10T04:32:58;17.10;82.40
74511;DHT22;62991;50.040;18.400;2023-06-10T04:35:58;17.00;82.80
74511;DHT22;62991;50.040;18.400;2023-06-10T04:38:59;17.00;82.90
74511;DHT22;62991;50.040;18.400;2023-06-10T04:42:00;16.90;82.90
74511;DHT22;62991;50.040;18.400;2023-06-10T04:45:02;16.90;82.90
74511;DHT22;62991;50.040;18.400;2023-06-10T04:48:04;16.90;83.20
74511;DHT22;62991;50.040;18.400;2023-06-10T04:51:05;16.80;83.10
74511;DHT22;62991;50.040;18.400;2023-06-10T04:54:05;16.90;83.30
74511;DHT22;62991;50.040;18.400;2023-06-10T04:57:07;17.10;83.30
74511;DHT22;62991;50.040;18.400;2023-06-10T05:00:08;17.20;82.80
74511;DHT22;62991;50.040;18.400;2023-06-10T05:03:09;17.20;82.30
74511;DHT22;62991;50.040;18.400;2023-06-10T05:06:10;17.40;82.10
74511;DHT22;62991;50.040;18.400;2023-06-10T05:09:10;17.50;81.90
74511;DHT22;62991;50.040;18.400;2023-06-10T05:12:11;17.60;81.20
74511;DHT22;62991;50.040;18.400;2023-06-10T05:15:12;17.70;81.10
74511;DHT22;62991;50.040;18.400;2023-06-10T05:18:12;17.80;80.80
74511;DHT22;62991;50.040;18.400;2023-06-10T05:21:13;17.90;80.60
74511;DHT22;62991;50.040;18.400;2023-06-10T05:24:14;18.00;80.30
74511;DHT22;62991;50.040;18.400;2023-06-10T05:27:14;18.10;79.70
74511;DHT22;62991;50.040;18.400;2023-06-10T05:30:15;18.50;79.60
74511;DHT22;62991;50.040;18.400;2023-06-10T05:33:19;18.70;78.70
74511;DHT22;62991;50.040;18.400;2023-06-10T05:36:19;18.70;78.10
74511;DHT22;62991;50.040;18.400;2023-06-10T05:39:20;18.70;78.60
74511;DHT22;62991;50.040;18.400;2023-06-10T05:42:21;18.80;78.30
74511;DHT22;62991;50.040;18.400;2023-06-10T05:45:22;18.70;78.50
74511;DHT22;62991;50.040;18.400;2023-06-10T05:48:22;18.70;78.50
74511;DHT22;62991;50.040;18.400;2023-06-10T05:51:23;18.90;78.20
74511;DHT22;62991;50.040;18.400;2023-06-10T05:54:25;18.90;78.10
74511;DHT22;62991;50.040;18.400;2023-06-10T05:57:26;19.00;77.70
74511;DHT22;62991;50.040;18.400;2023-06-10T06:00:27;19.30;77.10
74511;DHT22;62991;50.040;18.400;2023-06-10T06:03:27;19.40;76.40
74511;DHT22;62991;50.040;18.400;2023-06-10T06:06:29;19.40;77.00
74511;DHT22;62991;50.040;18.400;2023-06-10T06:09:29;19.50;76.70
74511;DHT22;62991;50.040;18.400;2023-06-10T06:12:30;19.70;75.40
74511;DHT22;62991;50.040;18.400;2023-06-10T06:15:31;19.90;76.30
74511;DHT22;62991;50.040;18.400;2023-06-10T06:18:32;20.20;74.60
74511;DHT22;62991;50.040;18.400;2023-06-10T06:21:32;20.20;74.10
74511;DHT22;62991;50.040;18.400;2023-06-10T06:24:33;20.40;73.50
74511;DHT22;62991;50.040;18.400;2023-06-10T06:27:34;20.60;73.50
74511;DHT22;62991;50.040;18.400;2023-06-10T06:30:35;20.90;72.60
74511;DHT22;62991;50.040;18.400;2023-06-10T06:33:36;20.70;72.90
74511;DHT22;62991;50.040;18.400;2023-06-10T06:36:36;20.90;73.10
74511;DHT22;62991;50.040;18.400;2023-06-10T06:39:37;21.00;70.90
74511;DHT22;62991;50.040;18.400;2023-06-10T06:42:38;21.00;70.70
74511;DHT22;62991;50.040;18.400;2023-06-10T06:45:38;20.90;72.00
74511;DHT22;62991;50.040;18.400;2023-06-10T06:48:39;20.70;71.00
74511;DHT22;62991;50.040;18.400;2023-06-10T06:51:40;20.50;71.20
74511;DHT22;62991;50.040;18.400;2023-06-10T06:54:40;20.50;72.10
74511;DHT22;62991;50.040;18.400;2023-06-10T06:57:41;20.50;72.70
74511;DHT22;62991;50.040;18.400;2023-06-10T07:00:42;20.50;72.60
74511;DHT22;62991;50.040;18.400;2023-06-10T07:03:42;20.40;71.80
74511;DHT22;62991;50.040;18.400;2023-06-10T07:06:43;20.40;71.20
74511;DHT22;62991;50.040;18.400;2023-06-10T07:09:44;20.30;71.80
74511;DHT22;62991;50.040;18.400;2023-06-10T07:12:44;20.40;71.70
74511;DHT22;62991;50.040;18.400;2023-06-10T07:15:45;20.50;71.40
74511;DHT22;62991;50.040;18.400;2023-06-10T07:18:46;20.40;72.20
74511;DHT22;62991;50.040;18.400;2023-06-10T07:21:46;20.30;72.10
74511;DHT22;62991;50.040;18.400;2023-06-10T07:24:48;20.20;71.80
74511;DHT22;62991;50.040;18.400;2023-06-10T07:27:49;20.30;72.60
74511;DHT22;62991;50.040;18.400;2023-06-10T07:30:49;20.50;71.40
74511;DHT22;62991;50.040;18.400;2023-06-10T07:33:50;20.30;72.60
74511;DHT22;62991;50.040;18.400;2023-06-10T07:36:51;20.40;71.30
74511;DHT22;62991;50.040;18.400;2023-06-10T07:39:52;20.40;72.20
74511;DHT22;62991;50.040;18.400;2023-06-10T07:42:53;20.50;70.80
74511;DHT22;62991;50.040;18.400;2023-06-10T07:45:53;20.70;70.90
74511;DHT22;62991;50.040;18.400;2023-06-10T07:48:54;20.50;71.30
74511;DHT22;62991;50.040;18.400;2023-06-10T07:51:55;20.40;71.40
74511;DHT22;62991;50.040;18.400;2023-06-10T07:54:56;20.40;71.50
74511;DHT22;62991;50.040;18.400;2023-06-10T07:57:56;20.70;71.50
74511;DHT22;62991;50.040;18.400;2023-06-10T08:00:57;20.90;71.20
74511;DHT22;62991;50.040;18.400;2023-06-10T08:03:58;20.70;70.70
74511;DHT22;62991;50.040;18.400;2023-06-10T08:06:59;20.60;72.40
74511;DHT22;62991;50.040;18.400;2023-06-10T08:10:00;20.90;70.50
74511;DHT22;62991;50.040;18.400;2023-06-10T08:13:00;20.60;70.50
74511;DHT22;62991;50.040;18.400;2023-06-10T08:16:01;20.60;72.20
74511;DHT22;62991;50.040;18.400;2023-06-10T08:19:02;20.40;73.20
74511;DHT22;62991;50.040;18.400;2023-06-10T08:22:03;20.50;73.10
74511;DHT22;62991;50.040;18.400;2023-06-10T08:25:04;20.80;71.70
74511;DHT22;62991;50.040;18.400;2023-06-10T08:28:05;21.00;71.00
74511;DHT22;62991;50.040;18.400;2023-06-10T08:31:06;21.20;70.60
74511;DHT22;62991;50.040;18.400;2023-06-10T08:34:06;20.70;71.60
74511;DHT22;62991;50.040;18.400;2023-06-10T08:37:07;20.40;72.90
74511;DHT22;62991;50.040;18.400;2023-06-10T08:40:08;20.20;73.10
74511;DHT22;62991;50.040;18.400;2023-06-10T08:43:31;19.80;75.10
74511;DHT22;62991;50.040;18.400;2023-06-10T08:46:33;19.70;74.90
74511;DHT22;62991;50.040;18.400;2023-06-10T08:49:38;19.70;75.40
74511;DHT22;62991;50.040;18.400;2023-06-10T08:52:44;19.70;75.80
74511;DHT22;62991;50.040;18.400;2023-06-10T08:55:49;19.60;75.40
74511;DHT22;62991;50.040;18.400;2023-06-10T08:58:52;19.60;75.70
74511;DHT22;62991;50.040;18.400;2023-06-10T09:01:53;19.50;75.70
74511;DHT22;62991;50.040;18.400;2023-06-10T09:04:56;19.50;76.10
74511;DHT22;62991;50.040;18.400;2023-06-10T09:07:57;19.60;76.10
74511;DHT22;62991;50.040;18.400;2023-06-10T09:10:58;19.80;75.40
74511;DHT22;62991;50.040;18.400;2023-06-10T09:13:59;19.90;76.00
74511;DHT22;62991;50.040;18.400;2023-06-10T09:16:59;20.00;75.70
74511;DHT22;62991;50.040;18.400;2023-06-10T09:20:00;20.10;76.00
74511;DHT22;62991;50.040;18.400;2023-06-10T09:23:03;20.20;74.90
74511;DHT22;62991;50.040;18.400;2023-06-10T09:26:08;20.20;75.10
74511;DHT22;62991;50.040;18.400;2023-06-10T09:29:09;20.40;75.30
74511;DHT22;62991;50.040;18.400;2023-06-10T09:32:12;20.70;76.30
74511;DHT22;62991;50.040;18.400;2023-06-10T09:35:13;20.90;75.50
74511;DHT22;62991;50.040;18.400;2023-06-10T09:38:19;21.40;74.90
74511;DHT22;62991;50.040;18.400;2023-06-10T09:41:20;21.60;73.40
74511;DHT22;62991;50.040;18.400;2023-06-10T09:44:22;21.60;74.10
74511;DHT22;62991;50.040;18.400;2023-06-10T09:47:24;21.90;73.60
74511;DHT22;62991;50.040;18.400;2023-06-10T09:50:25;22.10;72.70
74511;DHT22;62991;50.040;18.400;2023-06-10T09:53:26;22.20;72.20
74511;DHT22;62991;50.040;18.400;2023-06-10T09:56:37;22.10;71.50
74511;DHT22;62991;50.040;18.400;2023-06-10T09:59:37;22.00;71.20
74511;DHT22;62991;50.040;18.400;2023-06-10T10:05:48;22.30;71.70
74511;DHT22;62991;50.040;18.400;2023-06-10T10:08:51;22.60;72.10
74511;DHT22;62991;50.040;18.400;2023-06-10T10:11:52;22.70;70.50
74511;DHT22;62991;50.040;18.400;2023-06-10T10:14:55;22.80;70.80
74511;DHT22;62991;50.040;18.400;2023-06-10T10:18:07;22.70;69.60
74511;DHT22;62991;50.040;18.400;2023-06-10T10:21:13;22.40;70.30
74511;DHT22;62991;50.040;18.400;2023-06-10T10:24:21;22.70;71.80
74511;DHT22;62991;50.040;18.400;2023-06-10T10:27:28;23.00;68.80
74511;DHT22;62991;50.040;18.400;2023-06-10T10:30:30;23.20;68.70
74511;DHT22;62991;50.040;18.400;2023-06-10T10:34:13;23.40;69.00
74511;DHT22;62991;50.040;18.400;2023-06-10T10:37:07;23.50;68.90
74511;DHT22;62991;50.040;18.400;2023-06-10T10:40:08;23.50;68.90
74511;DHT22;62991;50.040;18.400;2023-06-10T10:43:10;23.60;67.80
74511;DHT22;62991;50.040;18.400;2023-06-10T10:46:14;23.70;66.00
74511;DHT22;62991;50.040;18.400;2023-06-10T10:49:17;23.70;66.50
74511;DHT22;62991;50.040;18.400;2023-06-10T10:52:18;23.50;64.90
74511;DHT22;62991;50.040;18.400;2023-06-10T10:55:19;23.30;66.30
74511;DHT22;62991;50.040;18.400;2023-06-10T10:58:24;23.40;66.40
74511;DHT22;62991;50.040;18.400;2023-06-10T11:01:43;23.80;66.20
74511;DHT22;62991;50.040;18.400;2023-06-10T11:04:47;24.10;63.40
74511;DHT22;62991;50.040;18.400;2023-06-10T11:07:55;24.00;63.20
74511;DHT22;62991;50.040;18.400;2023-06-10T11:10:56;23.90;63.30
74511;DHT22;62991;50.040;18.400;2023-06-10T11:17:18;22.90;62.80
74511;DHT22;62991;50.040;18.400;2023-06-10T11:23:50;22.60;64.50
74511;DHT22;62991;50.040;18.400;2023-06-10T11:26:51;22.60;65.10
74511;DHT22;62991;50.040;18.400;2023-06-10T11:30:18;22.40;65.30
74511;DHT22;62991;50.040;18.400;2023-06-10T11:33:19;22.40;64.10
74511;DHT22;62991;50.040;18.400;2023-06-10T11:36:21;22.30;64.80
74511;DHT22;62991;50.040;18.400;2023-06-10T11:39:22;22.50;65.20
74511;DHT22;62991;50.040;18.400;2023-06-10T11:42:24;22.60;65.10
74511;DHT22;62991;50.040;18.400;2023-06-10T11:45:25;22.70;63.60
74511;DHT22;62991;50.040;18.400;2023-06-10T11:48:26;22.70;64.30
74511;DHT22;62991;50.040;18.400;2023-06-10T11:51:38;22.90;64.30
74511;DHT22;62991;50.040;18.400;2023-06-10T11:54:40;23.00;65.30
74511;DHT22;62991;50.040;18.400;2023-06-10T11:57:41;23.10;64.40
74511;DHT22;62991;50.040;18.400;2023-06-10T12:00:52;23.20;63.80
74511;DHT22;62991;50.040;18.400;2023-06-10T12:04:07;23.20;61.20
74511;DHT22;62991;50.040;18.400;2023-06-10T12:07:07;23.40;60.90
74511;DHT22;62991;50.040;18.400;2023-06-10T12:10:08;23.70;60.70
74511;DHT22;62991;50.040;18.400;2023-06-10T12:13:09;24.10;60.40
74511;DHT22;62991;50.040;18.400;2023-06-10T12:16:10;24.40;60.00
74511;DHT22;62991;50.040;18.400;2023-06-10T12:19:11;24.80;60.30
74511;DHT22;62991;50.040;18.400;2023-06-10T12:22:13;24.80;57.00
74511;DHT22;62991;50.040;18.400;2023-06-10T12:25:14;25.00;56.90
74511;DHT22;62991;50.040;18.400;2023-06-10T12:28:15;25.00;54.40
74511;DHT22;62991;50.040;18.400;2023-06-10T12:31:16;24.90;54.60
74511;DHT22;62991;50.040;18.400;2023-06-10T12:34:17;24.80;54.30
74511;DHT22;62991;50.040;18.400;2023-06-10T12:37:17;24.80;54.60
74511;DHT22;62991;50.040;18.400;2023-06-10T12:40:29;25.00;55.00
74511;DHT22;62991;50.040;18.400;2023-06-10T12:43:31;25.20;54.50
74511;DHT22;62991;50.040;18.400;2023-06-10T12:46:38;25.50;52.90
74511;DHT22;62991;50.040;18.400;2023-06-10T12:49:39;25.80;53.40
74511;DHT22;62991;50.040;18.400;2023-06-10T12:52:39;25.90;53.20
74511;DHT22;62991;50.040;18.400;2023-06-10T12:55:41;25.90;52.60
74511;DHT22;62991;50.040;18.400;2023-06-10T12:58:42;25.90;52.40
74511;DHT22;62991;50.040;18.400;2023-06-10T13:01:43;26.20;51.80
74511;DHT22;62991;50.040;18.400;2023-06-10T13:04:44;26.50;53.50
74511;DHT22;62991;50.040;18.400;2023-06-10T13:07:45;26.70;52.70
74511;DHT22;62991;50.040;18.400;2023-06-10T13:10:45;27.00;50.30
74511;DHT22;62991;50.040;18.400;2023-06-10T13:13:46;27.00;50.80
74511;DHT22;62991;50.040;18.400;2023-06-10T13:16:47;27.20;49.30
74511;DHT22;62991;50.040;18.400;2023-06-10T13:19:47;27.30;50.60
74511;DHT22;62991;50.040;18.400;2023-06-10T13:22:49;27.10;51.00
74511;DHT22;62991;50.040;18.400;2023-06-10T13:25:49;27.40;50.20
74511;DHT22;62991;50.040;18.400;2023-06-10T13:28:50;27.70;48.70
74511;DHT22;62991;50.040;18.400;2023-06-10T13:31:51;27.70;48.40
74511;DHT22;62991;50.040;18.400;2023-06-10T13:34:52;27.90;47.60
74511;DHT22;62991;50.040;18.400;2023-06-10T13:37:53;28.00;48.70
74511;DHT22;62991;50.040;18.400;2023-06-10T13:40:54;28.10;47.20
74511;DHT22;62991;50.040;18.400;2023-06-10T13:43:55;28.10;47.40
74511;DHT22;62991;50.040;18.400;2023-06-10T13:46:56;27.70;46.80
74511;DHT22;62991;50.040;18.400;2023-06-10T13:49:56;27.80;48.80
74511;DHT22;62991;50.040;18.400;2023-06-10T13:52:57;28.20;48.10
74511;DHT22;62991;50.040;18.400;2023-06-10T13:55:57;28.20;48.30
74511;DHT22;62991;50.040;18.400;2023-06-10T13:58:58;28.40;48.40
74511;DHT22;62991;50.040;18.400;2023-06-10T14:01:59;28.50;46.60
74511;DHT22;62991;50.040;18.400;2023-06-10T14:05:00;28.70;49.50
74511;DHT22;62991;50.040;18.400;2023-06-10T14:08:01;29.00;47.90
74511;DHT22;62991;50.040;18.400;2023-06-10T14:11:03;29.30;46.70
74511;DHT22;62991;50.040;18.400;2023-06-10T14:14:04;29.30;47.80
74511;DHT22;62991;50.040;18.400;2023-06-10T14:17:05;29.50;47.50
74511;DHT22;62991;50.040;18.400;2023-06-10T14:20:06;29.50;46.70
74511;DHT22;62991;50.040;18.400;2023-06-10T14:23:07;29.70;46.20
74511;DHT22;62991;50.040;18.400;2023-06-10T14:26:08;29.70;47.20
74511;DHT22;62991;50.040;18.400;2023-06-10T14:29:09;30.10;45.80
74511;DHT22;62991;50.040;18.400;2023-06-10T14:32:09;32.50;42.80
74511;DHT22;62991;50.040;18.400;2023-06-10T14:35:10;33.20;41.30
74511;DHT22;62991;50.040;18.400;2023-06-10T14:38:11;32.50;43.10
74511;DHT22;62991;50.040;18.400;2023-06-10T14:41:11;32.00;43.30
74511;DHT22;62991;50.040;18.400;2023-06-10T14:44:12;31.60;44.30
74511;DHT22;62991;50.040;18.400;2023-06-10T14:47:13;31.10;42.90
74511;DHT22;62991;50.040;18.400;2023-06-10T14:50:14;30.20;45.00
74511;DHT22;62991;50.040;18.400;2023-06-10T14:53:15;29.50;44.20
74511;DHT22;62991;50.040;18.400;2023-06-10T14:56:15;28.80;47.00
74511;DHT22;62991;50.040;18.400;2023-06-10T14:59:16;28.70;47.20
74511;DHT22;62991;50.040;18.400;2023-06-10T15:02:17;28.50;47.50
74511;DHT22;62991;50.040;18.400;2023-06-10T15:05:18;28.20;46.70
74511;DHT22;62991;50.040;18.400;2023-06-10T15:08:21;27.90;47.90
74511;DHT22;62991;50.040;18.400;2023-06-10T15:11:22;27.60;48.60
74511;DHT22;62991;50.040;18.400;2023-06-10T15:14:23;26.80;49.70
74511;DHT22;62991;50.040;18.400;2023-06-10T15:17:23;25.70;49.80
74511;DHT22;62991;50.040;18.400;2023-06-10T15:20:24;24.90;51.00
74511;DHT22;62991;50.040;18.400;2023-06-10T15:23:25;23.60;57.10
74511;DHT22;62991;50.040;18.400;2023-06-10T15:26:25;21.60;60.70
74511;DHT22;62991;50.040;18.400;2023-06-10T15:29:27;20.80;64.50
74511;DHT22;62991;50.040;18.400;2023-06-10T15:32:27;20.20;66.80
74511;DHT22;62991;50.040;18.400;2023-06-10T15:35:28;19.90;68.00
74511;DHT22;62991;50.040;18.400;2023-06-10T15:38:29;19.90;68.60
74511;DHT22;62991;50.040;18.400;2023-06-10T15:41:30;20.40;67.40
74511;DHT22;62991;50.040;18.400;2023-06-10T15:44:30;21.00;65.30
74511;DHT22;62991;50.040;18.400;2023-06-10T15:47:31;21.20;63.90
74511;DHT22;62991;50.040;18.400;2023-06-10T15:50:32;21.40;63.90
74511;DHT22;62991;50.040;18.400;2023-06-10T15:53:32;21.60;64.10
74511;DHT22;62991;50.040;18.400;2023-06-10T15:56:33;21.40;64.80
74511;DHT22;62991;50.040;18.400;2023-06-10T15:59:34;21.50;64.60
74511;DHT22;62991;50.040;18.400;2023-06-10T16:02:35;21.20;64.50
74511;DHT22;62991;50.040;18.400;2023-06-10T16:05:35;21.00;65.50
74511;DHT22;62991;50.040;18.400;2023-06-10T16:08:36;21.00;65.20
74511;DHT22;62991;50.040;18.400;2023-06-10T16:11:37;20.80;66.50
74511;DHT22;62991;50.040;18.400;2023-06-10T16:14:37;20.80;66.30
74511;DHT22;62991;50.040;18.400;2023-06-10T16:17:38;20.60;66.70
74511;DHT22;62991;50.040;18.400;2023-06-10T16:20:39;20.20;67.70
74511;DHT22;62991;50.040;18.400;2023-06-10T16:23:40;20.10;67.90
74511;DHT22;62991;50.040;18.400;2023-06-10T16:26:41;20.00;68.80
74511;DHT22;62991;50.040;18.400;2023-06-10T16:29:41;20.10;68.80
74511;DHT22;62991;50.040;18.400;2023-06-10T16:32:42;20.30;68.80
74511;DHT22;62991;50.040;18.400;2023-06-10T16:35:43;20.20;69.00
74511;DHT22;62991;50.040;18.400;2023-06-10T16:38:43;20.30;68.80
74511;DHT22;62991;50.040;18.400;2023-06-10T16:41:44;20.50;68.60
74511;DHT22;62991;50.040;18.400;2023-06-10T16:44:45;20.60;68.30
74511;DHT22;62991;50.040;18.400;2023-06-10T16:47:46;20.70;68.00
74511;DHT22;62991;50.040;18.400;2023-06-10T16:50:46;20.90;67.50
74511;DHT22;62991;50.040;18.400;2023-06-10T16:53:47;20.80;68.30
74511;DHT22;62991;50.040;18.400;2023-06-10T16:56:48;20.80;68.40
74511;DHT22;62991;50.040;18.400;2023-06-10T16:59:48;20.90;68.00
74511;DHT22;62991;50.040;18.400;2023-06-10T17:02:49;21.00;68.30
74511;DHT22;62991;50.040;18.400;2023-06-10T17:05:49;21.10;67.90
74511;DHT22;62991;50.040;18.400;2023-06-10T17:08:50;20.90;68.50
74511;DHT22;62991;50.040;18.400;2023-06-10T17:11:51;20.90;69.10
74511;DHT22;62991;50.040;18.400;2023-06-10T17:14:52;20.90;68.90
74511;DHT22;62991;50.040;18.400;2023-06-10T17:17:53;20.80;69.80
74511;DHT22;62991;50.040;18.400;2023-06-10T17:20:53;20.60;70.00
74511;DHT22;62991;50.040;18.400;2023-06-10T17:23:54;20.50;71.10
74511;DHT22;62991;50.040;18.400;2023-06-10T17:26:55;20.30;72.10
74511;DHT22;62991;50.040;18.400;2023-06-10T17:29:55;20.40;71.50
74511;DHT22;62991;50.040;18.400;2023-06-10T17:32:56;20.50;71.90
74511;DHT22;62991;50.040;18.400;2023-06-10T17:35:57;20.40;71.90
74511;DHT22;62991;50.040;18.400;2023-06-10T17:38:58;20.50;72.50
74511;DHT22;62991;50.040;18.400;2023-06-10T17:41:58;20.40;72.10
74511;DHT22;62991;50.040;18.400;2023-06-10T17:44:59;20.30;72.90
74511;DHT22;62991;50.040;18.400;2023-06-10T17:48:00;20.40;72.40
74511;DHT22;62991;50.040;18.400;2023-06-10T17:51:00;20.40;72.80
74511;DHT22;62991;50.040;18.400;2023-06-10T17:54:01;20.20;72.90
74511;DHT22;62991;50.040;18.400;2023-06-10T17:57:02;20.10;73.50
74511;DHT22;62991;50.040;18.400;2023-06-10T18:00:03;20.10;73.40
74511;DHT22;62991;50.040;18.400;2023-06-10T18:03:04;20.30;72.90
74511;DHT22;62991;50.040;18.400;2023-06-10T18:06:05;20.50;72.00
74511;DHT22;62991;50.040;18.400;2023-06-10T18:09:06;20.40;72.10
74511;DHT22;62991;50.040;18.400;2023-06-10T18:12:07;20.30;72.30
74511;DHT22;62991;50.040;18.400;2023-06-10T18:15:07;20.30;72.10
74511;DHT22;62991;50.040;18.400;2023-06-10T18:18:08;20.10;73.30
74511;DHT22;62991;50.040;18.400;2023-06-10T18:21:10;20.00;73.40
74511;DHT22;62991;50.040;18.400;2023-06-10T18:24:11;19.90;73.80
74511;DHT22;62991;50.040;18.400;2023-06-10T18:27:12;19.90;73.60
74511;DHT22;62991;50.040;18.400;2023-06-10T18:30:13;19.80;74.00
74511;DHT22;62991;50.040;18.400;2023-06-10T18:33:14;19.70;74.20
74511;DHT22;62991;50.040;18.400;2023-06-10T18:36:15;19.70;73.50
74511;DHT22;62991;50.040;18.400;2023-06-10T18:39:15;19.70;73.20
74511;DHT22;62991;50.040;18.400;2023-06-10T18:42:16;19.70;73.60
74511;DHT22;62991;50.040;18.400;2023-06-10T18:45:17;19.70;73.90
74511;DHT22;62991;50.040;18.400;2023-06-10T18:48:18;19.80;73.90
74511;DHT22;62991;50.040;18.400;2023-06-10T18:51:18;19.70;74.00
74511;DHT22;62991;50.040;18.400;2023-06-10T18:54:19;19.80;73.10
74511;DHT22;62991;50.040;18.400;2023-06-10T18:57:20;19.80;72.70
74511;DHT22;62991;50.040;18.400;2023-06-10T19:00:20;19.80;72.10
74511;DHT22;62991;50.040;18.400;2023-06-10T19:03:21;19.90;71.40
74511;DHT22;62991;50.040;18.400;2023-06-10T19:06:22;19.80;72.00